createdAt,value
2023-05-24T00:00:04.886Z,59.60
2023-05-24T00:02:32.068Z,59.60
2023-05-24T00:05:00.958Z,59.60
2023-05-24T00:07:28.068Z,59.40
2023-05-24T00:12:22.309Z,59.60
2023-05-24T00:14:49.181Z,58.80
2023-05-24T00:17:15.969Z,59.50
2023-05-24T00:19:42.813Z,59.30
2023-05-24T00:22:09.623Z,59.30
2023-05-24T00:24:36.392Z,59.30
2023-05-24T00:27:04.279Z,59.30
2023-05-24T00:29:32.400Z,59.30
2023-05-24T00:31:59.308Z,58.80
2023-05-24T00:34:26.129Z,59.30
2023-05-24T00:36:53.189Z,59.30
2023-05-24T00:39:20.073Z,59.20
2023-05-24T00:41:46.898Z,59.20
2023-05-24T00:44:13.742Z,59.30
2023-05-24T00:46:41.605Z,59.20
2023-05-24T00:49:09.925Z,59.20
2023-05-24T00:51:38.421Z,59.20
2023-05-24T00:54:06.855Z,59.20
2023-05-24T00:56:34.174Z,59.20
2023-05-24T00:59:01.947Z,59.20
2023-05-24T01:01:31.088Z,59.30
2023-05-24T01:03:59.564Z,59.20
2023-05-24T01:06:28.326Z,59.20
2023-05-24T01:09:25.857Z,59.20
2023-05-24T01:12:11.720Z,59.30
2023-05-24T01:15:05.392Z,58.70
2023-05-24T01:18:01.740Z,59.30
2023-05-24T01:20:34.850Z,58.80
2023-05-24T01:23:16.846Z,59.20
2023-05-24T01:25:52.559Z,59.30
2023-05-24T01:28:21.430Z,59.30
2023-05-24T01:30:48.734Z,59.30
2023-05-24T01:33:17.135Z,59.20
2023-05-24T01:35:43.905Z,59.20
2023-05-24T01:38:12.027Z,59.30
2023-05-24T01:40:40.704Z,59.30
2023-05-24T01:43:37.918Z,59.20
2023-05-24T01:46:38.792Z,59.20
2023-05-24T01:49:29.478Z,59.10
2023-05-24T01:52:12.918Z,59.10
2023-05-24T01:54:47.293Z,59.10
2023-05-24T01:57:15.648Z,59.10
2023-05-24T01:59:45.366Z,59.10
2023-05-24T02:02:12.687Z,59.00
2023-05-24T02:04:40.095Z,59.00
2023-05-24T02:07:06.870Z,59.00
2023-05-24T02:09:33.694Z,59.00
2023-05-24T02:12:00.482Z,59.00
2023-05-24T02:14:27.258Z,59.60
2023-05-24T02:16:59.181Z,58.90
2023-05-24T02:19:26.387Z,59.00
2023-05-24T02:21:53.261Z,59.10
2023-05-24T02:24:20.075Z,59.10
2023-05-24T02:26:46.943Z,59.10
2023-05-24T02:29:13.788Z,59.20
2023-05-24T02:31:40.861Z,59.30
2023-05-24T02:34:08.347Z,59.40
2023-05-24T02:36:36.368Z,59.40
2023-05-24T02:39:04.273Z,59.40
2023-05-24T02:41:31.119Z,59.40
2023-05-24T02:46:25.649Z,59.00
2023-05-24T02:48:52.444Z,59.50
2023-05-24T02:51:19.327Z,59.50
2023-05-24T02:53:46.262Z,59.40
2023-05-24T02:56:13.960Z,59.50
2023-05-24T02:58:41.171Z,59.60
2023-05-24T03:01:08.633Z,59.70
2023-05-24T03:03:35.657Z,59.70
2023-05-24T03:06:02.611Z,59.60
2023-05-24T03:08:29.439Z,59.60
2023-05-24T03:10:56.289Z,59.70
2023-05-24T03:13:23.142Z,59.60
2023-05-24T03:15:49.961Z,59.60
2023-05-24T03:18:17.124Z,59.90
2023-05-24T03:23:11.827Z,59.50
2023-05-24T03:25:38.762Z,60.00
2023-05-24T03:28:05.523Z,59.50
2023-05-24T03:30:32.376Z,60.00
2023-05-24T03:32:59.544Z,60.10
2023-05-24T03:35:26.932Z,60.20
2023-05-24T03:37:53.691Z,60.00
2023-05-24T03:40:21.174Z,60.40
2023-05-24T03:42:48.008Z,59.70
2023-05-24T03:45:19.357Z,60.40
2023-05-24T03:47:51.036Z,60.40
2023-05-24T03:50:18.098Z,60.30
2023-05-24T03:52:44.935Z,60.40
2023-05-24T03:55:11.749Z,60.30
2023-05-24T03:57:38.565Z,60.50
2023-05-24T04:00:07.317Z,60.50
2023-05-24T04:02:34.296Z,60.50
2023-05-24T04:05:01.567Z,60.60
2023-05-24T04:07:28.465Z,60.50
2023-05-24T04:09:55.306Z,60.60
2023-05-24T04:12:22.079Z,60.60
2023-05-24T04:14:48.883Z,60.00
2023-05-24T04:17:15.780Z,60.40
2023-05-24T04:19:42.592Z,60.20
2023-05-24T04:22:09.419Z,60.10
2023-05-24T04:24:36.321Z,59.60
2023-05-24T04:27:03.110Z,60.00
2023-05-24T04:29:29.866Z,59.90
2023-05-24T04:31:57.130Z,59.80
2023-05-24T04:34:23.892Z,59.30
2023-05-24T04:36:52.488Z,59.20
2023-05-24T04:39:19.389Z,59.60
2023-05-24T04:41:46.292Z,59.40
2023-05-24T04:44:13.037Z,59.40
2023-05-24T04:46:40.321Z,59.30
2023-05-24T04:49:08.434Z,59.20
2023-05-24T04:51:38.471Z,59.10
2023-05-24T04:54:09.155Z,59.20
2023-05-24T04:56:38.388Z,59.20
2023-05-24T04:59:07.063Z,59.20
2023-05-24T05:01:34.449Z,59.20
2023-05-24T05:04:04.461Z,59.20
2023-05-24T05:06:34.006Z,59.70
2023-05-24T05:09:00.988Z,59.00
2023-05-24T05:11:27.859Z,59.00
2023-05-24T05:16:21.880Z,58.30
2023-05-24T05:18:48.665Z,59.20
2023-05-24T05:21:15.948Z,58.70
2023-05-24T05:26:09.879Z,58.10
2023-05-24T05:28:36.683Z,58.60
2023-05-24T05:31:04.084Z,58.60
2023-05-24T05:36:01.431Z,58.20
2023-05-24T05:38:28.426Z,58.60
2023-05-24T05:40:55.196Z,58.60
2023-05-24T05:43:21.997Z,58.70
2023-05-24T05:45:48.840Z,58.70
2023-05-24T05:48:15.618Z,58.90
2023-05-24T05:50:43.578Z,58.90
2023-05-24T05:53:10.557Z,58.80
2023-05-24T05:55:37.304Z,58.80
2023-05-24T05:58:04.121Z,58.70
2023-05-24T06:00:30.977Z,58.50
2023-05-24T06:02:57.845Z,58.40
2023-05-24T06:05:24.762Z,58.50
2023-05-24T06:07:51.545Z,57.80
2023-05-24T06:10:18.490Z,58.30
2023-05-24T06:12:45.340Z,58.20
2023-05-24T06:15:12.295Z,57.70
2023-05-24T06:17:39.078Z,58.20
2023-05-24T06:20:11.115Z,58.20
2023-05-24T06:22:38.699Z,58.20
2023-05-24T06:25:06.094Z,58.20
2023-05-24T06:27:32.888Z,57.80
2023-05-24T06:29:59.697Z,58.20
2023-05-24T06:32:26.552Z,57.70
2023-05-24T06:34:53.369Z,57.80
2023-05-24T06:37:25.019Z,58.20
2023-05-24T06:39:52.341Z,58.20
2023-05-24T06:42:19.104Z,58.20
2023-05-24T06:45:11.266Z,58.20
2023-05-24T06:47:38.120Z,57.90
2023-05-24T06:50:05.997Z,58.40
2023-05-24T06:52:32.780Z,58.50
2023-05-24T06:55:00.704Z,58.50
2023-05-24T06:57:27.487Z,58.40
2023-05-24T06:59:54.312Z,57.90
2023-05-24T07:02:26.625Z,58.40
2023-05-24T07:04:53.869Z,57.80
2023-05-24T07:07:21.310Z,58.30
2023-05-24T07:09:48.101Z,58.20
2023-05-24T07:12:14.914Z,57.40
2023-05-24T07:14:41.670Z,57.20
2023-05-24T07:17:08.664Z,57.90
2023-05-24T07:19:36.073Z,57.80
2023-05-24T07:22:02.960Z,57.80
2023-05-24T07:24:29.804Z,57.70
2023-05-24T07:26:59.490Z,57.70
2023-05-24T07:29:26.794Z,57.80
2023-05-24T07:31:56.425Z,57.70
2023-05-24T07:34:27.384Z,57.60
2023-05-24T07:36:54.240Z,57.70
2023-05-24T07:39:21.041Z,56.90
2023-05-24T07:41:47.937Z,57.50
2023-05-24T07:44:15.082Z,57.50
2023-05-24T07:46:42.142Z,57.40
2023-05-24T07:49:08.999Z,57.30
2023-05-24T07:51:35.784Z,56.60
2023-05-24T07:54:02.605Z,57.10
2023-05-24T07:56:30.121Z,57.00
2023-05-24T07:59:04.113Z,56.70
2023-05-24T08:01:34.398Z,56.50
2023-05-24T08:04:04.078Z,56.60
2023-05-24T08:06:32.940Z,56.50
2023-05-24T08:09:00.188Z,56.20
2023-05-24T08:11:27.477Z,56.20
2023-05-24T08:13:54.237Z,55.80
2023-05-24T08:16:21.173Z,56.20
2023-05-24T08:18:47.996Z,55.60
2023-05-24T08:21:14.941Z,56.20
2023-05-24T08:23:42.322Z,56.20
2023-05-24T08:26:09.233Z,56.20
2023-05-24T08:28:36.409Z,55.80
2023-05-24T08:31:04.388Z,55.70
2023-05-24T08:33:31.602Z,55.70
2023-05-24T08:35:58.433Z,55.60
2023-05-24T08:38:25.210Z,55.50
2023-05-24T08:40:52.318Z,55.60
2023-05-24T08:43:21.348Z,55.80
2023-05-24T08:45:50.145Z,55.90
2023-05-24T08:48:18.599Z,55.80
2023-05-24T08:50:46.624Z,55.90
2023-05-24T08:53:14.605Z,55.90
2023-05-24T08:55:43.888Z,55.80
2023-05-24T08:58:11.795Z,56.00
2023-05-24T09:00:38.630Z,56.00
2023-05-24T09:03:07.864Z,56.00
2023-05-24T09:05:35.507Z,56.00
2023-05-24T09:08:04.045Z,56.10
2023-05-24T09:10:45.163Z,56.70
2023-05-24T09:13:23.173Z,55.90
2023-05-24T09:15:50.220Z,55.90
2023-05-24T09:18:17.189Z,55.20
2023-05-24T09:20:44.262Z,55.60
2023-05-24T09:23:12.783Z,55.60
2023-05-24T09:25:46.142Z,55.50
2023-05-24T09:28:18.493Z,55.70
2023-05-24T09:30:58.203Z,55.10
2023-05-24T09:33:32.960Z,55.70
2023-05-24T09:36:02.745Z,55.40
2023-05-24T09:38:29.763Z,55.50
2023-05-24T09:41:03.272Z,55.40
2023-05-24T09:43:32.985Z,55.10
2023-05-24T09:46:03.374Z,55.10
2023-05-24T09:48:30.884Z,55.00
2023-05-24T09:51:06.281Z,54.90
2023-05-24T09:53:35.141Z,54.90
2023-05-24T09:56:05.864Z,54.70
2023-05-24T09:58:33.600Z,54.40
2023-05-24T10:01:14.558Z,54.10
2023-05-24T10:03:57.674Z,54.10
2023-05-24T10:06:26.591Z,53.70
2023-05-24T10:08:56.973Z,54.10
2023-05-24T10:11:24.163Z,54.30
2023-05-24T10:13:51.160Z,53.70
2023-05-24T10:16:18.161Z,54.30
2023-05-24T10:18:45.040Z,54.10
2023-05-24T10:21:13.340Z,54.00
2023-05-24T10:23:45.019Z,54.10
2023-05-24T10:26:14.341Z,53.80
2023-05-24T10:28:52.469Z,53.70
2023-05-24T10:31:36.327Z,53.20
2023-05-24T10:34:08.701Z,53.30
2023-05-24T10:36:37.056Z,53.50
2023-05-24T10:39:04.280Z,53.60
2023-05-24T10:41:40.930Z,54.00
2023-05-24T10:44:16.289Z,52.80
2023-05-24T10:47:13.102Z,52.80
2023-05-24T10:49:57.772Z,52.30
2023-05-24T10:52:37.400Z,52.30
2023-05-24T10:55:09.535Z,52.10
2023-05-24T11:00:35.245Z,51.30
2023-05-24T11:03:08.769Z,51.20
2023-05-24T11:05:49.729Z,51.70
2023-05-24T11:08:36.512Z,51.40
2023-05-24T11:13:42.160Z,51.00
2023-05-24T11:16:09.181Z,50.50
2023-05-24T11:18:40.138Z,50.90
2023-05-24T11:21:08.006Z,51.00
2023-05-24T11:23:38.120Z,50.80
2023-05-24T11:26:07.272Z,51.00
2023-05-24T11:28:37.928Z,51.00
2023-05-24T11:31:09.718Z,50.80
2023-05-24T11:33:41.542Z,51.00
2023-05-24T11:36:08.586Z,51.10
2023-05-24T11:38:36.659Z,51.10
2023-05-24T11:41:03.492Z,51.30
2023-05-24T11:43:31.313Z,51.10
2023-05-24T11:45:58.133Z,51.10
2023-05-24T11:48:24.989Z,51.20
2023-05-24T11:50:52.421Z,50.60
2023-05-24T11:53:21.095Z,51.30
2023-05-24T11:55:48.785Z,50.70
2023-05-24T11:58:45.780Z,51.00
2023-05-24T12:01:28.631Z,50.50
2023-05-24T12:03:55.788Z,50.40
2023-05-24T12:08:50.509Z,49.90
2023-05-24T12:11:17.542Z,49.50
2023-05-24T12:13:44.718Z,49.90
2023-05-24T12:16:13.295Z,50.40
2023-05-24T12:18:48.445Z,50.40
2023-05-24T12:21:22.580Z,50.50
2023-05-24T12:23:49.406Z,50.50
2023-05-24T12:26:22.611Z,50.30
2023-05-24T12:28:57.089Z,50.10
2023-05-24T12:31:24.031Z,49.10
2023-05-24T12:33:54.209Z,48.80
2023-05-24T12:36:21.357Z,50.30
2023-05-24T12:38:48.286Z,49.90
2023-05-24T12:41:16.377Z,49.40
2023-05-24T12:46:11.614Z,49.00
2023-05-24T12:48:38.492Z,49.70
2023-05-24T12:51:05.270Z,49.90
2023-05-24T12:53:32.204Z,49.90
2023-05-24T12:56:00.555Z,49.80
2023-05-24T12:58:27.567Z,49.80
2023-05-24T13:00:54.466Z,49.10
2023-05-24T13:03:21.441Z,50.10
2023-05-24T13:05:48.301Z,50.10
2023-05-24T13:08:16.284Z,49.70
2023-05-24T13:10:43.489Z,50.30
2023-05-24T13:13:10.530Z,50.20
2023-05-24T13:15:38.682Z,48.80
2023-05-24T13:18:06.165Z,49.70
2023-05-24T13:20:33.355Z,49.70
2023-05-24T13:25:27.576Z,48.00
2023-05-24T13:27:54.403Z,49.70
2023-05-24T13:30:27.488Z,49.10
2023-05-24T13:32:55.752Z,49.60
2023-05-24T13:35:22.642Z,49.60
2023-05-24T13:37:49.610Z,49.30
2023-05-24T13:40:16.727Z,49.30
2023-05-24T13:42:43.666Z,49.20
2023-05-24T13:45:12.291Z,49.10
2023-05-24T13:47:40.911Z,48.80
2023-05-24T13:50:09.006Z,48.30
2023-05-24T13:52:36.833Z,48.30
2023-05-24T13:55:04.955Z,48.20
2023-05-24T13:57:49.558Z,48.40
2023-05-24T14:00:18.636Z,47.20
2023-05-24T14:02:45.528Z,47.70
2023-05-24T14:07:42.427Z,48.10
2023-05-24T14:10:11.786Z,47.60
2023-05-24T14:12:38.765Z,48.20
2023-05-24T14:15:06.834Z,47.00
2023-05-24T14:17:33.659Z,48.20
2023-05-24T14:20:00.688Z,48.20
2023-05-24T14:22:30.515Z,48.20
2023-05-24T14:24:57.296Z,48.10
2023-05-24T14:27:24.187Z,48.00
2023-05-24T14:29:51.101Z,47.70
2023-05-24T14:32:17.941Z,47.30
2023-05-24T14:34:44.746Z,47.50
2023-05-24T14:37:11.594Z,47.60
2023-05-24T14:39:38.379Z,47.20
2023-05-24T14:42:06.152Z,47.80
2023-05-24T14:44:33.028Z,47.80
2023-05-24T14:46:59.785Z,47.70
2023-05-24T14:49:26.558Z,47.50
2023-05-24T14:51:53.343Z,47.30
2023-05-24T14:54:20.113Z,47.30
2023-05-24T14:56:46.944Z,47.10
2023-05-24T14:59:14.598Z,46.60
2023-05-24T15:04:09.156Z,46.70
2023-05-24T15:09:06.418Z,47.10
2023-05-24T15:11:33.210Z,47.70
2023-05-24T15:14:00.987Z,46.60
2023-05-24T15:16:28.077Z,47.60
2023-05-24T15:18:55.007Z,47.60
2023-05-24T15:21:21.828Z,47.60
2023-05-24T15:23:48.827Z,47.60
2023-05-24T15:26:15.633Z,47.60
2023-05-24T15:28:43.077Z,47.40
2023-05-24T15:31:10.863Z,47.60
2023-05-24T15:33:37.793Z,47.70
2023-05-24T15:36:05.110Z,47.70
2023-05-24T15:38:31.865Z,47.80
2023-05-24T15:40:58.712Z,47.70
2023-05-24T15:43:25.564Z,47.90
2023-05-24T15:45:53.486Z,47.70
2023-05-24T15:48:20.325Z,47.60
2023-05-24T15:53:34.379Z,47.10
2023-05-24T15:56:01.405Z,47.50
2023-05-24T15:58:28.183Z,47.50
2023-05-24T16:00:54.989Z,47.40
2023-05-24T16:03:22.047Z,47.40
2023-05-24T16:05:49.455Z,47.20
2023-05-24T16:08:17.267Z,47.20
2023-05-24T16:10:45.391Z,47.00
2023-05-24T16:13:12.191Z,46.50
2023-05-24T16:15:40.928Z,46.40
2023-05-24T16:18:08.415Z,47.30
2023-05-24T16:20:35.390Z,47.50
2023-05-24T16:23:03.541Z,47.40
2023-05-24T16:25:30.378Z,47.50
2023-05-24T16:27:57.213Z,47.30
2023-05-24T16:30:24.099Z,47.30
2023-05-24T16:32:51.595Z,47.40
2023-05-24T16:35:18.567Z,47.50
2023-05-24T16:37:45.437Z,47.40
2023-05-24T16:40:12.721Z,47.40
2023-05-24T16:45:07.257Z,46.70
2023-05-24T16:47:34.188Z,47.20
2023-05-24T16:50:00.966Z,47.10
2023-05-24T16:52:27.740Z,46.50
2023-05-24T16:54:54.558Z,47.00
2023-05-24T16:57:21.322Z,46.90
2023-05-24T16:59:50.618Z,47.00
2023-05-24T17:02:17.634Z,47.00
2023-05-24T17:04:44.406Z,46.50
2023-05-24T17:07:11.195Z,47.10
2023-05-24T17:09:38.111Z,47.10
2023-05-24T17:12:05.134Z,46.90
2023-05-24T17:14:31.974Z,46.00
2023-05-24T17:16:58.769Z,46.70
2023-05-24T17:19:26.152Z,46.80
2023-05-24T17:21:52.983Z,46.30
2023-05-24T17:24:21.678Z,46.90
2023-05-24T17:26:48.533Z,47.00
2023-05-24T17:29:15.583Z,46.30
2023-05-24T17:31:42.420Z,46.90
2023-05-24T17:34:09.212Z,46.90
2023-05-24T17:36:37.445Z,46.60
2023-05-24T17:39:05.245Z,46.70
2023-05-24T17:41:32.431Z,46.70
2023-05-24T17:43:59.689Z,46.50
2023-05-24T17:46:27.291Z,46.30
2023-05-24T17:48:55.377Z,46.40
2023-05-24T17:51:24.397Z,46.40
2023-05-24T17:53:51.336Z,46.00
2023-05-24T17:56:18.170Z,46.10
2023-05-24T17:58:47.335Z,46.80
2023-05-24T18:01:15.225Z,46.90
2023-05-24T18:03:42.755Z,47.10
2023-05-24T18:06:10.107Z,46.60
2023-05-24T18:08:40.951Z,47.30
2023-05-24T18:11:11.349Z,46.90
2023-05-24T18:13:40.491Z,47.20
2023-05-24T18:18:35.804Z,47.30
2023-05-24T18:21:02.632Z,48.00
2023-05-24T18:23:29.475Z,48.00
2023-05-24T18:26:00.306Z,48.10
2023-05-24T18:28:28.392Z,48.20
2023-05-24T18:30:55.251Z,48.30
2023-05-24T18:33:22.108Z,48.00
2023-05-24T18:35:49.147Z,48.50
2023-05-24T18:38:15.958Z,48.70
2023-05-24T18:40:42.718Z,48.80
2023-05-24T18:43:09.482Z,48.90
2023-05-24T18:45:36.942Z,48.60
2023-05-24T18:48:03.773Z,49.10
2023-05-24T18:50:30.556Z,49.20
2023-05-24T18:52:57.457Z,49.30
2023-05-24T18:55:24.266Z,49.40
2023-05-24T18:57:51.128Z,50.00
2023-05-24T19:00:22.453Z,49.50
2023-05-24T19:02:49.721Z,49.20
2023-05-24T19:05:16.730Z,49.80
2023-05-24T19:07:43.628Z,49.80
2023-05-24T19:10:10.874Z,50.00
2023-05-24T19:12:37.666Z,50.10
2023-05-24T19:15:05.025Z,50.00
2023-05-24T19:17:31.823Z,50.40
2023-05-24T19:22:29.161Z,49.90
2023-05-24T19:24:56.315Z,50.60
2023-05-24T19:27:24.440Z,50.70
2023-05-24T19:29:51.749Z,50.70
2023-05-24T19:32:20.262Z,51.00
2023-05-24T19:34:47.399Z,50.90
2023-05-24T19:37:14.409Z,51.00
2023-05-24T19:39:41.170Z,51.00
2023-05-24T19:42:07.955Z,51.00
2023-05-24T19:44:34.837Z,51.20
2023-05-24T19:47:01.688Z,51.30
2023-05-24T19:49:28.541Z,51.20
2023-05-24T19:51:56.022Z,51.30
2023-05-24T19:54:23.377Z,51.40
2023-05-24T19:56:51.849Z,51.30
2023-05-24T19:59:18.957Z,51.60
2023-05-24T20:01:45.803Z,51.70
2023-05-24T20:04:12.900Z,51.70
2023-05-24T20:06:40.354Z,51.70
2023-05-24T20:09:07.172Z,51.90
2023-05-24T20:11:34.771Z,51.90
2023-05-24T20:14:02.194Z,51.80
2023-05-24T20:16:29.923Z,51.70
2023-05-24T20:18:56.751Z,52.10
2023-05-24T20:21:23.536Z,52.20
2023-05-24T20:23:57.265Z,52.30
2023-05-24T20:26:24.822Z,52.40
2023-05-24T20:28:51.994Z,52.50
2023-05-24T20:31:18.991Z,52.60
2023-05-24T20:33:45.826Z,52.60
2023-05-24T20:36:14.852Z,52.70
2023-05-24T20:38:41.677Z,52.90
2023-05-24T20:41:08.504Z,52.80
2023-05-24T20:43:35.330Z,53.00
2023-05-24T20:46:02.223Z,53.10
2023-05-24T20:48:29.064Z,53.20
2023-05-24T20:50:55.848Z,53.30
2023-05-24T20:53:22.596Z,53.40
2023-05-24T20:55:50.092Z,53.40
2023-05-24T20:58:17.620Z,53.50
2023-05-24T21:00:44.414Z,53.70
2023-05-24T21:03:11.402Z,53.70
2023-05-24T21:05:40.104Z,53.80
2023-05-24T21:08:07.034Z,53.80
2023-05-24T21:10:34.017Z,54.00
2023-05-24T21:13:00.799Z,54.00
2023-05-24T21:15:27.565Z,54.10
2023-05-24T21:20:22.160Z,53.70
2023-05-24T21:22:49.265Z,54.30
2023-05-24T21:25:16.293Z,54.40
2023-05-24T21:27:43.067Z,54.40
2023-05-24T21:30:10.332Z,54.50
2023-05-24T21:32:37.166Z,54.50
2023-05-24T21:35:04.380Z,54.70
2023-05-24T21:37:31.167Z,54.80
2023-05-24T21:39:57.961Z,54.70
2023-05-24T21:42:24.726Z,54.80
2023-05-24T21:44:51.472Z,54.90
2023-05-24T21:47:18.258Z,54.90
2023-05-24T21:49:45.413Z,55.00
2023-05-24T21:52:12.177Z,55.10
2023-05-24T21:54:38.955Z,54.60
2023-05-24T21:57:07.163Z,55.30
2023-05-24T21:59:34.086Z,55.40
2023-05-24T22:02:01.640Z,55.40
2023-05-24T22:04:28.553Z,55.40
2023-05-24T22:06:55.385Z,55.50
2023-05-24T22:09:22.247Z,55.60
2023-05-24T22:11:49.044Z,56.20
2023-05-24T22:14:16.140Z,55.70
2023-05-24T22:16:43.139Z,55.80
2023-05-24T22:19:16.408Z,55.80
2023-05-24T22:21:43.334Z,56.00
2023-05-24T22:24:10.696Z,55.90
2023-05-24T22:26:38.182Z,56.00
2023-05-24T22:29:05.039Z,56.10
2023-05-24T22:31:33.513Z,56.20
2023-05-24T22:36:33.730Z,55.80
2023-05-24T22:39:04.097Z,56.40
2023-05-24T22:41:31.011Z,56.50
2023-05-24T22:43:57.903Z,56.40
2023-05-24T22:46:25.073Z,56.50
2023-05-24T22:48:52.504Z,56.60
2023-05-24T22:51:22.224Z,56.60
2023-05-24T22:53:49.044Z,56.70
2023-05-24T22:56:16.361Z,56.70
2023-05-24T22:58:43.188Z,56.70
2023-05-24T23:01:09.972Z,56.70
2023-05-24T23:03:36.790Z,56.70
2023-05-24T23:06:04.656Z,56.80
2023-05-24T23:08:32.564Z,56.90
2023-05-24T23:11:00.220Z,57.00
2023-05-24T23:13:33.317Z,56.60
2023-05-24T23:16:00.435Z,57.00
2023-05-24T23:18:27.891Z,57.00
2023-05-24T23:20:56.066Z,57.00
2023-05-24T23:23:24.782Z,56.60
2023-05-24T23:25:51.804Z,57.00
2023-05-24T23:28:19.413Z,57.00
2023-05-24T23:30:46.517Z,57.10
2023-05-24T23:33:13.476Z,57.10
2023-05-24T23:35:40.622Z,57.00
2023-05-24T23:38:07.594Z,57.10
2023-05-24T23:40:36.317Z,57.10
2023-05-24T23:43:04.134Z,57.10
2023-05-24T23:45:31.476Z,57.20
2023-05-24T23:47:58.823Z,57.30
2023-05-24T23:50:27.300Z,57.10
2023-05-24T23:52:54.819Z,57.30
2023-05-24T23:55:23.210Z,57.30
2023-05-24T23:57:50.185Z,57.40
